Terminal Aerodrome Forecast
Issued by NWS Wilmington, NC

Home | Current Version | Previous Version | Text Only | Print | Product List | Glossary On
Versions: 1 2 3 4 5 6 7 8 9 10 11 12 13 14 15 16 17 18 19 20 21 22 23 24 25
000
FTUS42 KILM 211700
TAFILM
TAF
KILM 211720Z 2118/2218 29011KT P6SM FEW035 SCT200
     FM212300 23007KT P6SM SKC
     FM221300 28005KT P6SM FEW020
     FM221700 VRB05KT P6SM VCSH SCT035 BKN120=

USA.gov is the U.S. government's official web portal to all federal, state and local government web resources and services.